createdAt,value
2018-12-24T00:01:37.827Z,0.50
2018-12-24T00:06:45.354Z,0.60
2018-12-24T00:11:53.041Z,0.60
2018-12-24T00:17:00.640Z,0.60
2018-12-24T00:22:08.552Z,0.60
2018-12-24T00:27:16.088Z,0.50
2018-12-24T00:32:23.612Z,0.50
2018-12-24T00:37:31.111Z,0.60
2018-12-24T00:42:38.626Z,0.60
2018-12-24T00:47:47.107Z,0.60
2018-12-24T00:52:54.635Z,0.60
2018-12-24T00:58:02.219Z,0.60
2018-12-24T01:03:09.982Z,0.50
2018-12-24T01:08:17.917Z,0.50
2018-12-24T01:13:25.431Z,0.60
2018-12-24T01:18:32.984Z,0.50
2018-12-24T01:23:41.422Z,0.40
2018-12-24T01:28:49.029Z,0.30
2018-12-24T01:33:56.545Z,0.30
2018-12-24T01:39:05.365Z,0.40
2018-12-24T01:44:13.485Z,0.40
2018-12-24T01:49:22.416Z,0.30
2018-12-24T01:54:29.954Z,0.20
2018-12-24T01:59:37.591Z,0.20
2018-12-24T02:04:45.225Z,0.10
2018-12-24T02:09:52.765Z,0.10
2018-12-24T02:15:00.354Z,0.10
2018-12-24T02:20:08.368Z,0.10
2018-12-24T02:25:16.057Z,0.00
2018-12-24T02:30:23.677Z,0.00
2018-12-24T02:35:31.286Z,0.00
2018-12-24T02:40:38.901Z,-0.10
2018-12-24T02:45:46.396Z,-0.10
2018-12-24T02:50:53.937Z,-0.10
2018-12-24T02:56:01.425Z,-0.20
2018-12-24T03:01:10.733Z,-0.20
2018-12-24T03:06:18.228Z,-0.10
2018-12-24T03:11:25.837Z,-0.20
2018-12-24T03:16:33.867Z,-0.20
2018-12-24T03:21:41.500Z,-0.10
2018-12-24T03:26:49.706Z,-0.20
2018-12-24T03:31:57.321Z,-0.30
2018-12-24T03:37:04.805Z,-0.30
2018-12-24T03:42:12.491Z,-0.30
2018-12-24T03:47:20.003Z,-0.30
2018-12-24T03:52:27.705Z,-0.30
2018-12-24T03:57:35.313Z,-0.40
2018-12-24T04:02:42.867Z,-0.50
2018-12-24T04:07:50.388Z,-0.50
2018-12-24T04:12:58.278Z,-0.60
2018-12-24T04:18:06.639Z,-0.50
2018-12-24T04:23:15.039Z,-0.50
2018-12-24T04:28:22.575Z,-0.50
2018-12-24T04:33:30.176Z,-0.50
2018-12-24T04:38:37.704Z,-0.60
2018-12-24T04:43:45.769Z,-0.60
2018-12-24T04:48:53.384Z,-0.60
2018-12-24T04:54:01.009Z,-0.60
2018-12-24T04:59:08.631Z,-0.60
2018-12-24T05:04:16.112Z,-0.50
2018-12-24T05:09:24.115Z,-0.60
2018-12-24T05:14:31.750Z,-0.60
2018-12-24T05:19:39.246Z,-0.60
2018-12-24T05:24:46.850Z,-0.60
2018-12-24T05:29:54.353Z,-0.70
2018-12-24T05:35:01.863Z,-0.70
2018-12-24T05:40:09.383Z,-0.60
2018-12-24T05:45:16.900Z,-0.60
2018-12-24T05:50:24.619Z,-0.60
2018-12-24T05:55:32.319Z,-0.60
2018-12-24T06:00:40.177Z,-0.60
2018-12-24T06:05:47.825Z,-0.60
2018-12-24T06:10:55.352Z,-0.60
2018-12-24T06:16:02.853Z,-0.50
2018-12-24T06:21:10.346Z,-0.50
2018-12-24T06:26:17.859Z,-0.60
2018-12-24T06:31:25.467Z,-0.60
2018-12-24T06:36:32.986Z,-0.60
2018-12-24T06:41:40.890Z,-0.60
2018-12-24T06:46:48.455Z,-0.70
2018-12-24T06:51:56.011Z,-0.50
2018-12-24T06:57:04.795Z,-0.60
2018-12-24T07:02:12.553Z,-0.60
2018-12-24T07:07:20.217Z,-0.60
2018-12-24T07:12:27.631Z,-0.50
2018-12-24T07:17:35.144Z,-0.50
2018-12-24T07:22:42.648Z,-0.50
2018-12-24T07:27:50.154Z,-0.50
2018-12-24T07:32:57.631Z,-0.50
2018-12-24T07:38:05.239Z,-0.40
2018-12-24T07:43:12.763Z,-0.40
2018-12-24T07:48:20.304Z,-0.40
2018-12-24T07:53:27.873Z,-0.30
2018-12-24T07:58:35.508Z,-0.20
2018-12-24T08:03:45.711Z,-0.20
2018-12-24T08:08:53.325Z,-0.10
2018-12-24T08:14:01.072Z,0.00
2018-12-24T08:19:08.666Z,0.10
2018-12-24T08:24:16.273Z,0.30
2018-12-24T08:29:23.821Z,0.40
2018-12-24T08:34:31.315Z,0.40
2018-12-24T08:39:38.809Z,0.50
2018-12-24T08:44:46.328Z,0.50
2018-12-24T08:49:53.840Z,0.40
2018-12-24T08:55:01.472Z,0.50
2018-12-24T09:00:09.213Z,0.50
2018-12-24T09:05:16.797Z,0.50
2018-12-24T09:10:24.415Z,0.40
2018-12-24T09:17:53.289Z,0.50
2018-12-24T09:23:00.270Z,0.70
2018-12-24T09:28:07.856Z,0.70
2018-12-24T09:33:15.144Z,0.70
2018-12-24T09:38:22.219Z,0.80
2018-12-24T09:43:29.269Z,0.80
2018-12-24T09:48:36.521Z,0.80
2018-12-24T09:53:43.643Z,0.80
2018-12-24T09:58:50.701Z,0.80
2018-12-24T10:04:02.945Z,0.80
2018-12-24T10:09:12.517Z,0.70
2018-12-24T10:14:19.693Z,0.70
2018-12-24T10:19:26.773Z,0.70
2018-12-24T10:24:33.886Z,0.80
2018-12-24T10:29:41.093Z,0.90
2018-12-24T10:34:48.901Z,1.00
2018-12-24T10:39:56.715Z,1.10
2018-12-24T10:45:03.839Z,1.10
2018-12-24T10:50:10.820Z,1.00
2018-12-24T10:55:18.846Z,0.90
2018-12-24T11:00:26.225Z,0.80
2018-12-24T11:05:33.428Z,0.80
2018-12-24T11:10:40.842Z,0.70
2018-12-24T11:15:47.987Z,0.60
2018-12-24T11:20:55.037Z,0.60
2018-12-24T11:26:02.414Z,0.50
2018-12-24T11:31:09.466Z,0.60
2018-12-24T11:36:16.874Z,0.60
2018-12-24T11:41:23.935Z,0.60
2018-12-24T11:46:31.004Z,0.60
2018-12-24T11:51:38.079Z,0.60
2018-12-24T11:56:45.267Z,0.50
2018-12-24T12:01:53.480Z,0.40
2018-12-24T12:07:01.555Z,0.30
2018-12-24T12:12:08.639Z,0.30
2018-12-24T12:17:15.933Z,0.40
2018-12-24T12:22:23.137Z,0.40
2018-12-24T12:27:30.118Z,0.40
2018-12-24T12:32:37.185Z,0.40
2018-12-24T12:37:46.170Z,0.40
2018-12-24T12:42:53.307Z,0.40
2018-12-24T12:48:01.372Z,0.40
2018-12-24T12:53:08.487Z,0.40
2018-12-24T12:58:16.297Z,0.50
2018-12-24T13:03:23.533Z,0.50
2018-12-24T13:08:30.746Z,0.40
2018-12-24T13:13:37.815Z,0.40
2018-12-24T13:18:45.150Z,0.40
2018-12-24T13:23:52.237Z,0.30
2018-12-24T13:28:59.334Z,0.20
2018-12-24T13:34:06.483Z,0.10
2018-12-24T13:39:13.797Z,0.10
2018-12-24T13:44:20.837Z,0.10
2018-12-24T13:49:28.249Z,0.00
2018-12-24T13:54:35.370Z,0.00
2018-12-24T13:59:42.362Z,0.00
2018-12-24T14:04:50.541Z,0.00
2018-12-24T14:09:57.733Z,-0.10
2018-12-24T14:15:06.812Z,-0.20
2018-12-24T14:20:14.071Z,-0.30
2018-12-24T14:25:21.442Z,-0.30
2018-12-24T14:30:28.592Z,-0.40
2018-12-24T14:35:35.973Z,-0.40
2018-12-24T14:40:43.174Z,-0.50
2018-12-24T14:45:50.742Z,-0.50
2018-12-24T14:50:58.077Z,-0.40
2018-12-24T14:56:06.517Z,-0.50
2018-12-24T15:01:13.571Z,-0.60
2018-12-24T15:06:20.634Z,-0.60
2018-12-24T15:11:27.937Z,-0.60
2018-12-24T15:16:39.221Z,-0.60
2018-12-24T15:21:46.294Z,-0.70
2018-12-24T15:26:53.682Z,-0.70
2018-12-24T15:32:00.779Z,-0.70
2018-12-24T15:37:08.325Z,-0.70
2018-12-24T15:42:15.519Z,-0.80
2018-12-24T15:47:22.795Z,-0.80
2018-12-24T15:52:30.190Z,-0.80
2018-12-24T15:57:37.241Z,-0.80
2018-12-24T16:02:44.563Z,-0.80
2018-12-24T16:07:51.785Z,-0.80
2018-12-24T16:12:58.853Z,-0.90
2018-12-24T16:18:05.955Z,-0.80
2018-12-24T16:23:13.252Z,-0.80
2018-12-24T16:28:20.339Z,-0.80
2018-12-24T16:33:27.993Z,-0.90
2018-12-24T16:38:35.158Z,-0.90
2018-12-24T16:43:42.631Z,-1.00
2018-12-24T16:48:49.816Z,-1.00
2018-12-24T16:53:56.963Z,-1.00
2018-12-24T16:59:04.056Z,-1.00
2018-12-24T17:04:12.344Z,-1.00
2018-12-24T17:09:19.703Z,-1.00
2018-12-24T17:14:26.839Z,-1.20
2018-12-24T17:19:34.133Z,-1.20
2018-12-24T17:24:42.236Z,-1.10
2018-12-24T17:29:49.323Z,-1.20
2018-12-24T17:34:56.480Z,-1.20
2018-12-24T17:40:03.866Z,-1.30
2018-12-24T17:45:10.974Z,-1.40
2018-12-24T17:50:18.160Z,-1.40
2018-12-24T17:55:25.243Z,-1.40
2018-12-24T18:00:32.427Z,-1.40
2018-12-24T18:05:39.816Z,-1.40
2018-12-24T18:10:47.053Z,-1.50
2018-12-24T18:15:54.189Z,-1.50
2018-12-24T18:21:01.382Z,-1.50
2018-12-24T18:26:08.453Z,-1.60
2018-12-24T18:31:19.854Z,-1.60
2018-12-24T18:36:24.600Z,-1.60
2018-12-24T18:41:31.790Z,-1.60
2018-12-24T18:46:38.882Z,-1.60
2018-12-24T18:51:45.962Z,-1.50
2018-12-24T18:56:53.119Z,-1.50
2018-12-24T19:02:00.215Z,-1.50
2018-12-24T19:07:07.357Z,-1.60
2018-12-24T19:12:14.518Z,-1.60
2018-12-24T19:17:21.658Z,-1.60
2018-12-24T19:22:28.837Z,-1.50
2018-12-24T19:27:35.928Z,-1.50
2018-12-24T19:32:43.053Z,-1.50
2018-12-24T19:37:50.250Z,-1.50
2018-12-24T19:42:57.323Z,-1.40
2018-12-24T19:48:04.401Z,-1.30
2018-12-24T19:53:12.473Z,-1.40
2018-12-24T19:58:19.577Z,-1.30
2018-12-24T20:03:26.770Z,-1.30
2018-12-24T20:08:34.232Z,-1.40
2018-12-24T20:13:41.292Z,-1.20
2018-12-24T20:18:48.582Z,-1.20
2018-12-24T20:23:55.799Z,-1.30
2018-12-24T20:29:02.989Z,-1.20
2018-12-24T20:34:10.197Z,-1.20
2018-12-24T20:39:17.348Z,-1.30
2018-12-24T20:44:24.490Z,-1.20
2018-12-24T20:49:31.666Z,-1.20
2018-12-24T20:54:38.867Z,-1.30
2018-12-24T20:59:45.943Z,-1.30
2018-12-24T21:04:53.012Z,-1.30
2018-12-24T21:10:00.265Z,-1.40
2018-12-24T21:15:07.501Z,-1.30
2018-12-24T21:20:14.586Z,-1.30
2018-12-24T21:25:27.263Z,-1.30
2018-12-24T21:30:35.880Z,-1.40
2018-12-24T21:35:44.250Z,-1.40
2018-12-24T21:40:51.522Z,-1.40
2018-12-24T21:46:00.645Z,-1.40
2018-12-24T21:51:09.008Z,-1.40
2018-12-24T21:56:16.392Z,-1.30
2018-12-24T22:01:23.536Z,-1.30
2018-12-24T22:06:30.712Z,-1.30
2018-12-24T22:11:37.983Z,-1.40
2018-12-24T22:16:45.081Z,-1.30
2018-12-24T22:21:52.552Z,-1.30
2018-12-24T22:27:00.641Z,-1.40
2018-12-24T22:32:08.871Z,-1.40
2018-12-24T22:37:15.947Z,-1.40
2018-12-24T22:42:23.042Z,-1.40
2018-12-24T22:47:30.481Z,-1.40
2018-12-24T22:52:37.581Z,-1.40
2018-12-24T22:57:44.847Z,-1.30
2018-12-24T23:02:52.240Z,-1.30
2018-12-24T23:07:59.355Z,-1.20
2018-12-24T23:13:06.563Z,-1.20
2018-12-24T23:18:13.623Z,-1.20
2018-12-24T23:23:20.911Z,-1.20
2018-12-24T23:28:29.399Z,-1.10
2018-12-24T23:33:36.595Z,-1.10
2018-12-24T23:38:43.698Z,-1.00
2018-12-24T23:43:50.769Z,-1.00
2018-12-24T23:48:58.048Z,-1.00
2018-12-24T23:54:06.424Z,-1.00
2018-12-24T23:59:13.551Z,-0.90
